Time;durP1;ratioP1;P1;durP2;ratioP2;P2;SDS_P1;SDS_P2;PMS_P1;PMS_P2;Temp;Humidity;BMP_temperature;BMP_pressure;BME280_temperature;BME280_humidity;BME280_pressure;Samples;Min_cycle;Max_cycle;Signal;HPM_P1;HPM_P2
2021/12/10 00:00:33;;;;;;;41.33;21.42;;;;;;;;;;5029487;28;20456;-59
2021/12/10 00:02:59;;;;;;;33.47;21.77;;;;;;;;;;5032103;28;20075;-58
2021/12/10 00:05:27;;;;;;;36.05;23.88;;;;;;;;;;5029788;28;20029;-58
2021/12/10 00:07:55;;;;;;;33.87;19.07;;;;;;;;;;5031861;28;20503;-59
2021/12/10 00:10:21;;;;;;;38.97;22.17;;;;;;;;;;5030501;28;20033;-59
2021/12/10 00:12:50;;;;;;;38.17;20.50;;;;;;;;;;5038363;28;20021;-58
2021/12/10 00:15:18;;;;;;;34.95;21.02;;;;;;;;;;5050037;28;20120;-59
2021/12/10 00:17:44;;;;;;;39.33;22.27;;;;;;;;;;5051401;28;20500;-58
2021/12/10 00:20:11;;;;;;;35.30;20.45;;;;;;;;;;5049651;28;20021;-59
2021/12/10 00:22:40;;;;;;;41.25;21.67;;;;;;;;;;5051268;28;20075;-59
2021/12/10 00:25:08;;;;;;;31.60;19.92;;;;;;;;;;5050520;28;20379;-59
2021/12/10 00:27:33;;;;;;;41.25;22.75;;;;;;;;;;5051446;28;20102;-58
2021/12/10 00:30:07;;;;;;;31.90;23.13;;;;;;;;;;5049858;28;20602;-58
2021/12/10 00:32:36;;;;;;;36.35;23.50;;;;;;;;;;5051737;28;20013;-58
2021/12/10 00:35:15;;;;;;;41.03;22.33;;;;;;;;;;5049937;28;20082;-58
2021/12/10 00:37:40;;;;;;;31.52;22.73;;;;;;;;;;5051884;28;20005;-58
2021/12/10 00:40:07;;;;;;;30.43;22.17;;;;;;;;;;5049946;28;20479;-58
2021/12/10 00:42:33;;;;;;;35.58;21.75;;;;;;;;;;5045431;28;20447;-59
2021/12/10 00:44:59;;;;;;;42.08;21.48;;;;;;;;;;5030394;28;20014;-59
2021/12/10 00:47:25;;;;;;;34.28;22.67;;;;;;;;;;5031319;28;20468;-59
2021/12/10 00:49:51;;;;;;;39.65;23.45;;;;;;;;;;5031101;28;20100;-59
2021/12/10 00:52:16;;;;;;;38.08;21.92;;;;;;;;;;5029675;28;20548;-59
2021/12/10 00:54:42;;;;;;;32.22;24.80;;;;;;;;;;5031557;28;20029;-59
2021/12/10 00:57:08;;;;;;;50.15;24.58;;;;;;;;;;5029691;28;20033;-59
2021/12/10 00:59:34;;;;;;;39.28;21.77;;;;;;;;;;5031096;28;20026;-59
2021/12/10 01:01:59;;;;;;;42.42;24.45;;;;;;;;;;5037264;28;20571;-59
2021/12/10 01:04:27;;;;;;;37.83;22.57;;;;;;;;;;5050895;28;20354;-58
2021/12/10 01:06:54;;;;;;;45.38;26.08;;;;;;;;;;5049704;28;20482;-58
2021/12/10 01:09:21;;;;;;;42.22;24.88;;;;;;;;;;5050805;28;20051;-59
2021/12/10 01:12:00;;;;;;;46.70;25.77;;;;;;;;;;5048721;28;20033;-59
2021/12/10 01:14:38;;;;;;;49.70;27.23;;;;;;;;;;5050836;28;20628;-59
2021/12/10 01:26:09;;;;;;;42.70;26.92;;;;;;;;;;5049555;28;20494;-59
2021/12/10 01:28:05;;;;;;;44.63;28.08;;;;;;;;;;5042281;28;20043;-59
2021/12/10 01:30:32;;;;;;;48.72;31.05;;;;;;;;;;5049020;28;20053;-59
2021/12/10 01:32:59;;;;;;;44.28;28.10;;;;;;;;;;5050251;28;20532;-59
2021/12/10 01:35:27;;;;;;;53.13;29.58;;;;;;;;;;5049188;28;20036;-59
2021/12/10 01:37:53;;;;;;;43.83;30.25;;;;;;;;;;5050933;28;20025;-59
2021/12/10 01:40:21;;;;;;;49.28;29.35;;;;;;;;;;5048714;28;20029;-59
2021/12/10 01:42:49;;;;;;;44.17;26.67;;;;;;;;;;5050968;28;20057;-59
2021/12/10 01:45:20;;;;;;;45.00;29.10;;;;;;;;;;5049277;28;20037;-59
2021/12/10 01:47:47;;;;;;;56.88;28.83;;;;;;;;;;5050421;28;20039;-59
2021/12/10 01:50:12;;;;;;;45.60;26.52;;;;;;;;;;5049464;28;20507;-59
2021/12/10 01:52:37;;;;;;;52.72;26.23;;;;;;;;;;5050190;28;20041;-59
2021/12/10 01:55:04;;;;;;;34.72;23.75;;;;;;;;;;5049036;28;20053;-59
2021/12/10 01:57:30;;;;;;;35.58;23.55;;;;;;;;;;5032580;28;20446;-59
2021/12/10 01:59:56;;;;;;;35.85;23.23;;;;;;;;;;5029372;28;20022;-59
2021/12/10 02:02:27;;;;;;;32.45;24.67;;;;;;;;;;5044249;28;20145;-59
2021/12/10 02:04:52;;;;;;;30.70;24.92;;;;;;;;;;5049316;28;20472;-59
2021/12/10 02:07:19;;;;;;;35.28;25.25;;;;;;;;;;5050102;28;20056;-59
2021/12/10 02:09:45;;;;;;;32.42;22.15;;;;;;;;;;5048671;28;20025;-60
2021/12/10 02:12:10;;;;;;;30.98;23.50;;;;;;;;;;5050468;28;20074;-59
2021/12/10 02:14:35;;;;;;;32.28;21.95;;;;;;;;;;5049128;28;20618;-59
2021/12/10 02:17:01;;;;;;;24.53;20.33;;;;;;;;;;5050504;28;20025;-60
2021/12/10 02:19:27;;;;;;;26.27;19.90;;;;;;;;;;5048727;28;21058;-59
2021/12/10 02:21:52;;;;;;;33.20;18.85;;;;;;;;;;5048733;28;20033;-59
2021/12/10 02:24:18;;;;;;;39.35;21.63;;;;;;;;;;5052469;28;20482;-59
2021/12/10 02:26:55;;;;;;;24.75;18.75;;;;;;;;;;5053626;28;20174;-59
2021/12/10 02:29:25;;;;;;;24.75;18.08;;;;;;;;;;5052434;28;20030;-59
2021/12/10 02:31:51;;;;;;;24.80;19.38;;;;;;;;;;5053972;28;20024;-59
2021/12/10 02:34:16;;;;;;;22.52;17.88;;;;;;;;;;5052241;28;20025;-59
2021/12/10 02:36:42;;;;;;;24.83;17.33;;;;;;;;;;5053785;28;20025;-59
2021/12/10 02:39:11;;;;;;;25.75;16.95;;;;;;;;;;5052393;28;20965;-60
2021/12/10 02:41:37;;;;;;;24.15;16.60;;;;;;;;;;5053297;28;20025;-60
2021/12/10 02:44:03;;;;;;;24.70;19.23;;;;;;;;;;5052285;28;20044;-60
2021/12/10 02:46:28;;;;;;;22.52;16.20;;;;;;;;;;5053588;28;20066;-60
2021/12/10 02:48:54;;;;;;;22.10;17.30;;;;;;;;;;5053433;28;20055;-60
2021/12/10 02:51:20;;;;;;;22.75;16.38;;;;;;;;;;5051673;28;20029;-60
2021/12/10 02:53:46;;;;;;;19.48;17.17;;;;;;;;;;5052312;28;20020;-60
2021/12/10 02:56:16;;;;;;;22.70;16.67;;;;;;;;;;5040808;28;20111;-60
2021/12/10 02:58:42;;;;;;;24.83;17.58;;;;;;;;;;5033609;28;20556;-60
2021/12/10 03:01:09;;;;;;;24.27;16.52;;;;;;;;;;5031944;28;20037;-60
2021/12/10 03:03:36;;;;;;;24.15;17.35;;;;;;;;;;5032891;28;20437;-60
2021/12/10 03:06:08;;;;;;;27.50;16.38;;;;;;;;;;5031809;28;20094;-61
2021/12/10 03:08:34;;;;;;;20.60;16.25;;;;;;;;;;5033171;28;20484;-61
2021/12/10 03:10:59;;;;;;;21.25;17.00;;;;;;;;;;5031522;28;20049;-61
2021/12/10 03:13:24;;;;;;;25.67;16.63;;;;;;;;;;5033006;28;20372;-61
2021/12/10 03:15:51;;;;;;;23.33;17.67;;;;;;;;;;5031659;28;20487;-61
2021/12/10 03:18:19;;;;;;;24.52;17.33;;;;;;;;;;5032837;28;20436;-61
2021/12/10 03:20:44;;;;;;;31.13;21.10;;;;;;;;;;5031742;28;20030;-61
2021/12/10 03:23:11;;;;;;;22.93;18.70;;;;;;;;;;5033099;28;20025;-60
2021/12/10 03:25:36;;;;;;;24.35;18.95;;;;;;;;;;5030772;28;20555;-59
2021/12/10 03:28:02;;;;;;;20.02;17.48;;;;;;;;;;5032966;28;20104;-59
2021/12/10 03:30:29;;;;;;;25.25;20.27;;;;;;;;;;5031238;28;20029;-59
2021/12/10 03:32:55;;;;;;;29.88;21.10;;;;;;;;;;5032318;28;20435;-59
2021/12/10 03:35:23;;;;;;;22.55;19.35;;;;;;;;;;5031291;28;20116;-60
2021/12/10 03:37:48;;;;;;;25.23;18.20;;;;;;;;;;5032884;28;20171;-59
2021/12/10 03:40:15;;;;;;;25.63;19.27;;;;;;;;;;5030798;28;20536;-59
2021/12/10 03:42:40;;;;;;;22.25;18.17;;;;;;;;;;5032799;28;20032;-59
2021/12/10 03:45:09;;;;;;;23.45;18.27;;;;;;;;;;5031185;28;20033;-60
2021/12/10 03:47:34;;;;;;;23.48;17.98;;;;;;;;;;5032200;28;20431;-60
2021/12/10 03:49:59;;;;;;;21.67;18.92;;;;;;;;;;5031423;28;20021;-60
2021/12/10 03:52:24;;;;;;;29.10;19.20;;;;;;;;;;5032154;28;20068;-60
2021/12/10 03:54:50;;;;;;;25.20;17.73;;;;;;;;;;5031782;28;20108;-60
2021/12/10 03:57:15;;;;;;;24.02;17.65;;;;;;;;;;5052589;28;20017;-60
2021/12/10 03:59:40;;;;;;;20.70;17.63;;;;;;;;;;5050663;28;20025;-59
2021/12/10 04:02:06;;;;;;;23.70;17.88;;;;;;;;;;5035490;28;20017;-60
2021/12/10 04:04:34;;;;;;;28.95;18.75;;;;;;;;;;5030576;28;20504;-60
2021/12/10 04:07:00;;;;;;;37.72;17.52;;;;;;;;;;5032379;28;20484;-60
2021/12/10 04:09:26;;;;;;;20.95;16.23;;;;;;;;;;5030371;28;20030;-60
2021/12/10 04:11:52;;;;;;;22.48;16.58;;;;;;;;;;5032078;28;20495;-60
2021/12/10 04:14:17;;;;;;;22.88;15.40;;;;;;;;;;5030807;28;20037;-60
2021/12/10 04:16:42;;;;;;;22.45;15.52;;;;;;;;;;5031760;28;20029;-60
2021/12/10 04:19:09;;;;;;;21.63;14.95;;;;;;;;;;5030677;28;20018;-60
2021/12/10 04:21:39;;;;;;;23.50;16.05;;;;;;;;;;5031419;28;20013;-60
2021/12/10 04:24:05;;;;;;;17.35;13.63;;;;;;;;;;5030418;28;20350;-59
2021/12/10 04:26:31;;;;;;;18.20;14.68;;;;;;;;;;5046828;28;20019;-60
2021/12/10 04:28:56;;;;;;;23.20;16.10;;;;;;;;;;5051839;28;20380;-60
2021/12/10 04:31:21;;;;;;;17.37;13.40;;;;;;;;;;5049734;28;20471;-59
2021/12/10 04:33:46;;;;;;;25.08;14.25;;;;;;;;;;5051893;28;20427;-59
2021/12/10 04:36:11;;;;;;;18.33;12.47;;;;;;;;;;5050149;28;20057;-59
2021/12/10 04:38:37;;;;;;;18.27;11.77;;;;;;;;;;5051093;28;20979;-59
2021/12/10 04:41:05;;;;;;;15.90;12.87;;;;;;;;;;5050184;28;20492;-59
2021/12/10 04:43:31;;;;;;;14.80;13.03;;;;;;;;;;5051181;28;20986;-59
2021/12/10 04:45:57;;;;;;;20.65;14.00;;;;;;;;;;5049318;28;20037;-59
2021/12/10 04:48:22;;;;;;;23.08;12.73;;;;;;;;;;5051466;28;20021;-59
2021/12/10 04:50:48;;;;;;;19.33;13.65;;;;;;;;;;5049827;28;20037;-59
2021/12/10 04:53:14;;;;;;;18.60;14.82;;;;;;;;;;5050750;28;20056;-59
2021/12/10 04:55:40;;;;;;;18.80;13.40;;;;;;;;;;5047977;28;20047;-59
2021/12/10 04:58:06;;;;;;;26.77;13.13;;;;;;;;;;5051528;28;20024;-59
2021/12/10 05:00:36;;;;;;;16.23;11.00;;;;;;;;;;5048901;28;20102;-59
2021/12/10 05:03:04;;;;;;;14.55;13.07;;;;;;;;;;5051301;28;20024;-60
2021/12/10 05:05:29;;;;;;;10.50;9.40;;;;;;;;;;5049328;28;20400;-59
2021/12/10 05:07:55;;;;;;;23.35;14.63;;;;;;;;;;5050848;28;20017;-60
2021/12/10 05:10:20;;;;;;;22.52;12.80;;;;;;;;;;5047379;28;20037;-59
2021/12/10 05:12:46;;;;;;;18.77;12.07;;;;;;;;;;5031221;28;20013;-57
2021/12/10 05:15:12;;;;;;;16.58;11.82;;;;;;;;;;5029760;28;20440;-57
2021/12/10 05:17:39;;;;;;;19.42;14.27;;;;;;;;;;5031729;28;20423;-57
2021/12/10 05:20:12;;;;;;;15.60;13.07;;;;;;;;;;5031958;28;20099;-57
2021/12/10 05:22:38;;;;;;;24.50;12.50;;;;;;;;;;5038920;28;20411;-57
2021/12/10 05:25:03;;;;;;;18.13;11.63;;;;;;;;;;5031822;28;20045;-57
2021/12/10 05:27:29;;;;;;;17.35;11.88;;;;;;;;;;5041781;28;20021;-57
2021/12/10 05:29:54;;;;;;;18.15;12.85;;;;;;;;;;5049224;28;20025;-57
2021/12/10 05:32:19;;;;;;;13.57;12.17;;;;;;;;;;5049143;28;20108;-57
2021/12/10 05:34:46;;;;;;;15.93;12.45;;;;;;;;;;5049262;28;20448;-57
2021/12/10 05:37:13;;;;;;;16.73;10.10;;;;;;;;;;5031134;28;20053;-57
2021/12/10 05:39:38;;;;;;;16.23;11.38;;;;;;;;;;5031639;28;20758;-57
2021/12/10 05:42:04;;;;;;;23.15;10.35;;;;;;;;;;5032849;28;20033;-57
2021/12/10 05:44:29;;;;;;;16.50;10.90;;;;;;;;;;5029024;28;20048;-57
2021/12/10 05:46:54;;;;;;;18.52;9.73;;;;;;;;;;5030815;28;20071;-57
2021/12/10 05:49:19;;;;;;;19.00;9.48;;;;;;;;;;5029167;28;20048;-57
2021/12/10 05:51:45;;;;;;;16.00;10.90;;;;;;;;;;5030317;28;20041;-57
2021/12/10 05:54:10;;;;;;;14.23;9.93;;;;;;;;;;5029434;28;20404;-56
2021/12/10 05:56:35;;;;;;;18.87;10.30;;;;;;;;;;5030662;28;20369;-57
2021/12/10 05:59:01;;;;;;;14.25;8.13;;;;;;;;;;5034531;28;20578;-58
2021/12/10 06:01:26;;;;;;;21.88;10.98;;;;;;;;;;5032674;28;20060;-57
2021/12/10 06:03:52;;;;;;;14.35;7.43;;;;;;;;;;5034470;28;20038;-57
2021/12/10 06:06:21;;;;;;;16.88;8.10;;;;;;;;;;5032718;28;20033;-57
2021/12/10 06:08:47;;;;;;;12.02;8.23;;;;;;;;;;5033847;28;20036;-57
2021/12/10 06:11:12;;;;;;;13.18;8.75;;;;;;;;;;5040817;28;20041;-57
2021/12/10 06:13:37;;;;;;;15.23;8.07;;;;;;;;;;5044536;28;20009;-57
2021/12/10 06:16:03;;;;;;;10.73;8.63;;;;;;;;;;5043408;28;20044;-57
2021/12/10 06:18:29;;;;;;;23.05;7.45;;;;;;;;;;5042986;28;20466;-57
2021/12/10 06:20:54;;;;;;;20.05;9.40;;;;;;;;;;5041543;28;20490;-57
2021/12/10 06:23:20;;;;;;;15.32;8.13;;;;;;;;;;5041591;28;20026;-57
2021/12/10 06:25:45;;;;;;;12.55;8.45;;;;;;;;;;5045844;28;20304;-57
2021/12/10 06:28:10;;;;;;;13.23;8.27;;;;;;;;;;5043471;28;20021;-57
2021/12/10 06:30:38;;;;;;;17.60;9.60;;;;;;;;;;5040421;28;20043;-57
2021/12/10 06:33:06;;;;;;;8.70;7.87;;;;;;;;;;5045648;28;20028;-57
2021/12/10 06:35:32;;;;;;;13.13;8.20;;;;;;;;;;5046520;28;20034;-57
2021/12/10 06:37:58;;;;;;;9.90;8.25;;;;;;;;;;5042004;28;20787;-57
2021/12/10 06:40:24;;;;;;;13.32;7.63;;;;;;;;;;5039971;28;20404;-57
2021/12/10 06:42:50;;;;;;;12.73;9.30;;;;;;;;;;5033779;28;20020;-57
2021/12/10 06:45:16;;;;;;;20.00;9.32;;;;;;;;;;5032000;28;20025;-57
2021/12/10 06:47:47;;;;;;;15.48;7.60;;;;;;;;;;5033934;28;20105;-57
2021/12/10 06:50:13;;;;;;;11.73;8.07;;;;;;;;;;5032448;28;20029;-57
2021/12/10 06:52:38;;;;;;;13.85;8.32;;;;;;;;;;5032863;28;20045;-57
2021/12/10 06:55:03;;;;;;;8.03;7.27;;;;;;;;;;5032162;28;20053;-57
2021/12/10 06:57:29;;;;;;;12.35;8.88;;;;;;;;;;5038967;28;20781;-57
2021/12/10 06:59:55;;;;;;;13.70;6.72;;;;;;;;;;5041587;28;20450;-57
2021/12/10 07:02:20;;;;;;;8.98;6.90;;;;;;;;;;5043378;28;20024;-57
2021/12/10 07:04:45;;;;;;;14.80;7.27;;;;;;;;;;5040300;28;20034;-57
2021/12/10 07:07:11;;;;;;;17.27;10.10;;;;;;;;;;5043553;28;20938;-57
2021/12/10 07:09:37;;;;;;;19.20;8.02;;;;;;;;;;5040635;28;20040;-57
2021/12/10 07:12:02;;;;;;;12.63;6.82;;;;;;;;;;5034659;28;20044;-56
2021/12/10 07:14:28;;;;;;;11.77;6.15;;;;;;;;;;5031117;28;20498;-57
2021/12/10 07:16:53;;;;;;;20.53;7.90;;;;;;;;;;5032921;28;20025;-57
2021/12/10 07:19:19;;;;;;;15.13;7.20;;;;;;;;;;5031488;28;20455;-57
2021/12/10 07:21:44;;;;;;;7.75;6.85;;;;;;;;;;5032917;28;20104;-57
2021/12/10 07:24:12;;;;;;;18.60;8.30;;;;;;;;;;5035896;28;20108;-56
2021/12/10 07:26:38;;;;;;;13.23;6.75;;;;;;;;;;5051407;28;20017;-57
2021/12/10 07:29:04;;;;;;;14.00;8.00;;;;;;;;;;5051102;28;20017;-55
2021/12/10 07:31:29;;;;;;;11.57;6.85;;;;;;;;;;5052433;28;20480;-57
2021/12/10 07:33:55;;;;;;;16.27;6.88;;;;;;;;;;5052798;28;20524;-57
2021/12/10 07:36:21;;;;;;;10.35;7.03;;;;;;;;;;5050212;28;20116;-57
2021/12/10 07:38:46;;;;;;;14.23;8.00;;;;;;;;;;5052840;28;20040;-57
2021/12/10 07:41:11;;;;;;;8.93;6.70;;;;;;;;;;5051190;28;20529;-57
2021/12/10 07:43:37;;;;;;;13.63;6.63;;;;;;;;;;5051948;28;20052;-57
2021/12/10 07:46:04;;;;;;;15.88;8.52;;;;;;;;;;5051094;28;20052;-57
2021/12/10 07:48:29;;;;;;;12.05;7.10;;;;;;;;;;5052555;28;20357;-57
2021/12/10 07:50:59;;;;;;;17.05;8.82;;;;;;;;;;5050712;28;20037;-57
2021/12/10 07:53:27;;;;;;;10.30;7.47;;;;;;;;;;5052127;28;20124;-57
2021/12/10 07:55:55;;;;;;;11.43;7.97;;;;;;;;;;5050814;28;20072;-57
2021/12/10 07:58:21;;;;;;;13.30;6.63;;;;;;;;;;5052049;28;20021;-57
2021/12/10 08:00:47;;;;;;;12.73;8.05;;;;;;;;;;5050729;28;20033;-57
2021/12/10 08:03:12;;;;;;;17.73;10.60;;;;;;;;;;5052594;28;20021;-57
2021/12/10 08:05:38;;;;;;;9.07;7.22;;;;;;;;;;5050251;28;20052;-57
2021/12/10 08:08:06;;;;;;;26.75;10.00;;;;;;;;;;5052275;28;20452;-57
2021/12/10 08:10:31;;;;;;;14.05;7.90;;;;;;;;;;5050465;28;20116;-57
2021/12/10 08:12:56;;;;;;;8.77;5.90;;;;;;;;;;5051943;28;20046;-57
2021/12/10 08:15:21;;;;;;;11.00;6.77;;;;;;;;;;5050271;28;20039;-57
2021/12/10 08:17:47;;;;;;;13.55;7.90;;;;;;;;;;5051948;28;20423;-57
2021/12/10 08:20:13;;;;;;;13.73;8.47;;;;;;;;;;5049386;28;20496;-57
2021/12/10 08:22:39;;;;;;;11.27;7.40;;;;;;;;;;5051475;28;20434;-57
2021/12/10 08:25:05;;;;;;;9.85;7.97;;;;;;;;;;5050204;28;20037;-57
2021/12/10 08:27:30;;;;;;;16.67;7.38;;;;;;;;;;5051437;28;20020;-57
2021/12/10 08:30:02;;;;;;;15.68;8.05;;;;;;;;;;5049041;28;20393;-57
2021/12/10 08:32:27;;;;;;;14.57;6.30;;;;;;;;;;5051769;28;20028;-57
2021/12/10 08:34:52;;;;;;;21.20;7.13;;;;;;;;;;5050122;28;20032;-57
2021/12/10 08:37:18;;;;;;;11.33;6.73;;;;;;;;;;5051553;28;20047;-56
2021/12/10 08:39:43;;;;;;;11.20;6.40;;;;;;;;;;5050212;28;20451;-57
2021/12/10 08:42:09;;;;;;;14.85;6.80;;;;;;;;;;5051385;28;20021;-57
2021/12/10 08:44:34;;;;;;;11.40;6.50;;;;;;;;;;5049912;28;20060;-57
2021/12/10 08:46:59;;;;;;;19.95;9.40;;;;;;;;;;5051450;28;20376;-57
2021/12/10 08:49:27;;;;;;;9.50;6.88;;;;;;;;;;5049349;28;20048;-56
2021/12/10 08:51:54;;;;;;;34.95;9.63;;;;;;;;;;5051371;28;20075;-57
2021/12/10 08:54:22;;;;;;;12.48;6.75;;;;;;;;;;5049935;28;20017;-57
2021/12/10 08:56:47;;;;;;;10.48;7.72;;;;;;;;;;5051005;28;20052;-57
2021/12/10 08:59:13;;;;;;;8.30;5.93;;;;;;;;;;5049825;28;20041;-56
2021/12/10 09:01:41;;;;;;;8.80;7.13;;;;;;;;;;5050908;28;20412;-56
2021/12/10 09:04:07;;;;;;;11.23;7.22;;;;;;;;;;5049445;28;20017;-57
2021/12/10 09:06:34;;;;;;;13.27;7.32;;;;;;;;;;5050869;28;20020;-57
2021/12/10 09:08:59;;;;;;;13.35;7.00;;;;;;;;;;5051297;28;20664;-57
2021/12/10 09:11:25;;;;;;;9.70;5.88;;;;;;;;;;5049402;28;20033;-57
2021/12/10 09:13:50;;;;;;;10.18;6.28;;;;;;;;;;5051175;28;20025;-57
2021/12/10 09:16:20;;;;;;;8.60;5.43;;;;;;;;;;5049378;28;20431;-57
2021/12/10 09:18:45;;;;;;;12.32;6.07;;;;;;;;;;5051227;28;20423;-57
2021/12/10 09:21:11;;;;;;;13.73;6.77;;;;;;;;;;5048246;28;20698;-57
2021/12/10 09:23:36;;;;;;;10.80;6.35;;;;;;;;;;5047924;28;20494;-57
2021/12/10 09:26:06;;;;;;;11.00;5.72;;;;;;;;;;5049470;28;20112;-57
2021/12/10 09:28:31;;;;;;;13.82;8.05;;;;;;;;;;5041862;28;20491;-57
2021/12/10 09:30:58;;;;;;;14.82;6.60;;;;;;;;;;5046791;28;20033;-57
2021/12/10 09:33:23;;;;;;;13.05;6.13;;;;;;;;;;5054194;28;20017;-57
2021/12/10 09:35:48;;;;;;;12.13;6.72;;;;;;;;;;5051781;28;20443;-57
2021/12/10 09:38:14;;;;;;;8.65;5.25;;;;;;;;;;5054873;28;20021;-57
2021/12/10 09:40:41;;;;;;;6.18;5.28;;;;;;;;;;5053197;28;20037;-57
2021/12/10 09:43:07;;;;;;;8.15;5.05;;;;;;;;;;5054570;28;20036;-57
2021/12/10 09:45:33;;;;;;;11.68;6.05;;;;;;;;;;5052501;28;20029;-57
2021/12/10 09:48:00;;;;;;;7.40;5.97;;;;;;;;;;5049075;28;20375;-57
2021/12/10 09:50:27;;;;;;;10.57;5.07;;;;;;;;;;5043074;28;20099;-57
2021/12/10 09:52:54;;;;;;;6.63;4.65;;;;;;;;;;5051964;28;20052;-57
2021/12/10 09:55:19;;;;;;;11.85;6.43;;;;;;;;;;5052580;28;20033;-57
2021/12/10 09:57:45;;;;;;;7.43;5.28;;;;;;;;;;5054097;28;20391;-57
2021/12/10 10:00:16;;;;;;;6.90;4.53;;;;;;;;;;5052874;28;20111;-57
2021/12/10 10:02:42;;;;;;;11.52;6.97;;;;;;;;;;5054519;28;20028;-57
2021/12/10 10:05:07;;;;;;;8.80;5.88;;;;;;;;;;5052724;28;20400;-57
2021/12/10 10:07:33;;;;;;;7.32;5.47;;;;;;;;;;5054108;28;20021;-57
2021/12/10 10:10:03;;;;;;;6.72;4.38;;;;;;;;;;5052978;28;20029;-57
2021/12/10 10:12:31;;;;;;;35.25;17.83;;;;;;;;;;5053861;28;20020;-57
2021/12/10 10:14:56;;;;;;;10.10;6.40;;;;;;;;;;5053095;28;20076;-57
2021/12/10 10:17:22;;;;;;;11.85;5.18;;;;;;;;;;5053912;28;20411;-57
2021/12/10 10:19:48;;;;;;;11.23;5.53;;;;;;;;;;5052203;28;20029;-57
2021/12/10 10:22:20;;;;;;;13.80;4.55;;;;;;;;;;5053006;28;20032;-57
2021/12/10 10:24:45;;;;;;;13.95;5.70;;;;;;;;;;5051717;28;20095;-57
2021/12/10 10:27:19;;;;;;;6.65;3.90;;;;;;;;;;5053048;28;20025;-57
2021/12/10 10:29:52;;;;;;;12.88;4.78;;;;;;;;;;5051539;28;20528;-57
2021/12/10 10:32:19;;;;;;;10.75;4.45;;;;;;;;;;5053261;28;20040;-57
2021/12/10 10:34:46;;;;;;;6.90;4.88;;;;;;;;;;5051575;28;20033;-57
2021/12/10 10:37:12;;;;;;;8.35;4.82;;;;;;;;;;5053853;28;20024;-57
2021/12/10 10:39:38;;;;;;;10.38;5.95;;;;;;;;;;5052105;28;20450;-57
2021/12/10 10:42:06;;;;;;;14.52;5.45;;;;;;;;;;5053368;28;20464;-57
2021/12/10 10:44:31;;;;;;;10.73;4.20;;;;;;;;;;5051185;28;20115;-57
2021/12/10 10:46:57;;;;;;;6.82;3.55;;;;;;;;;;5053887;28;20105;-57
2021/12/10 10:49:49;;;;;;;5.25;4.38;;;;;;;;;;5051768;28;20093;-57
2021/12/10 10:52:14;;;;;;;7.30;4.05;;;;;;;;;;5052246;28;20044;-57
2021/12/10 10:54:39;;;;;;;12.73;6.03;;;;;;;;;;5051736;28;20067;-57
2021/12/10 10:57:24;;;;;;;6.95;4.95;;;;;;;;;;5053355;28;20515;-57
2021/12/10 10:59:54;;;;;;;8.73;4.57;;;;;;;;;;5052205;28;20037;-57
2021/12/10 11:02:19;;;;;;;8.32;4.70;;;;;;;;;;5047524;28;20040;-57
2021/12/10 11:04:46;;;;;;;10.03;4.50;;;;;;;;;;5051016;28;20400;-57
2021/12/10 11:07:13;;;;;;;11.07;5.90;;;;;;;;;;5053300;28;20462;-57
2021/12/10 11:09:52;;;;;;;6.25;4.45;;;;;;;;;;5051310;28;20052;-57
2021/12/10 11:12:20;;;;;;;8.73;4.45;;;;;;;;;;5052741;28;20021;-57
2021/12/10 11:14:49;;;;;;;8.85;4.75;;;;;;;;;;5044616;28;20068;-57
2021/12/10 11:17:17;;;;;;;10.88;5.25;;;;;;;;;;5051028;28;20021;-58
2021/12/10 11:19:50;;;;;;;9.70;5.63;;;;;;;;;;5044512;28;20044;-57
2021/12/10 11:22:16;;;;;;;7.32;4.25;;;;;;;;;;5032374;28;20097;-57
2021/12/10 11:24:45;;;;;;;12.48;4.55;;;;;;;;;;5032478;28;20158;-57
2021/12/10 11:27:13;;;;;;;5.90;3.38;;;;;;;;;;5035345;28;20039;-57
2021/12/10 11:29:48;;;;;;;18.25;6.25;;;;;;;;;;5042562;28;20116;-57
2021/12/10 11:32:16;;;;;;;13.13;5.95;;;;;;;;;;5049092;28;20029;-57
2021/12/10 11:34:44;;;;;;;6.22;4.10;;;;;;;;;;5050620;28;20079;-57
2021/12/10 11:37:09;;;;;;;13.85;6.15;;;;;;;;;;5051059;28;20057;-57
2021/12/10 11:40:01;;;;;;;8.68;5.20;;;;;;;;;;5039704;28;20410;-57
2021/12/10 11:42:45;;;;;;;11.65;5.93;;;;;;;;;;5035093;28;20511;-57
2021/12/10 11:45:33;;;;;;;14.30;4.95;;;;;;;;;;5031053;28;20038;-57
2021/12/10 11:48:07;;;;;;;7.57;4.78;;;;;;;;;;5034351;28;20036;-57
2021/12/10 11:50:33;;;;;;;9.13;5.45;;;;;;;;;;5043199;28;20033;-57
2021/12/10 11:53:17;;;;;;;10.40;3.97;;;;;;;;;;5046869;28;20116;-57
2021/12/10 11:55:59;;;;;;;23.38;6.25;;;;;;;;;;5044922;28;20083;-57
2021/12/10 11:58:25;;;;;;;4.72;3.58;;;;;;;;;;5032016;28;20021;-57
2021/12/10 12:00:50;;;;;;;5.35;4.43;;;;;;;;;;5034190;28;20095;-57
2021/12/10 12:03:16;;;;;;;4.75;4.18;;;;;;;;;;5048197;28;20028;-57
2021/12/10 12:05:42;;;;;;;11.90;4.13;;;;;;;;;;5046719;28;20035;-57
2021/12/10 12:08:09;;;;;;;13.00;5.18;;;;;;;;;;5039690;28;20024;-57
2021/12/10 12:10:42;;;;;;;16.45;6.25;;;;;;;;;;5054526;28;20033;-58
2021/12/10 12:13:20;;;;;;;15.18;5.85;;;;;;;;;;5046308;28;20395;-57
2021/12/10 12:15:48;;;;;;;7.53;4.05;;;;;;;;;;5029460;28;20088;-57
2021/12/10 12:18:14;;;;;;;14.50;5.13;;;;;;;;;;5030478;28;20053;-57
2021/12/10 12:20:45;;;;;;;8.63;3.97;;;;;;;;;;5031007;28;20102;-57
2021/12/10 12:25:58;;;;;;;23.35;6.45;;;;;;;;;;5028744;28;20136;-58
2021/12/10 12:28:24;;;;;;;6.95;4.80;;;;;;;;;;5042688;28;20097;-57
2021/12/10 12:30:52;;;;;;;15.10;6.50;;;;;;;;;;5033252;28;20030;-57
2021/12/10 12:33:17;;;;;;;7.05;4.53;;;;;;;;;;5030823;28;20068;-58
2021/12/10 12:35:43;;;;;;;6.33;3.47;;;;;;;;;;5040187;28;20065;-57
2021/12/10 12:38:08;;;;;;;13.70;4.80;;;;;;;;;;5033281;28;20494;-57
2021/12/10 12:40:33;;;;;;;12.77;4.70;;;;;;;;;;5038372;28;20091;-58
2021/12/10 12:43:04;;;;;;;11.88;5.72;;;;;;;;;;5042404;28;20025;-58
2021/12/10 12:45:30;;;;;;;9.27;3.42;;;;;;;;;;5043563;28;20488;-57
2021/12/10 12:47:56;;;;;;;9.85;3.97;;;;;;;;;;5048275;28;20096;-57
2021/12/10 12:50:22;;;;;;;9.85;4.28;;;;;;;;;;5029324;28;20132;-57
2021/12/10 12:52:52;;;;;;;7.53;4.47;;;;;;;;;;5030894;28;20030;-57
2021/12/10 12:55:37;;;;;;;10.80;4.50;;;;;;;;;;5029890;28;20515;-57
2021/12/10 12:58:14;;;;;;;5.75;4.85;;;;;;;;;;5044340;28;20443;-57
2021/12/10 13:00:46;;;;;;;7.72;5.03;;;;;;;;;;5032424;28;20115;-57
2021/12/10 13:03:11;;;;;;;5.68;3.85;;;;;;;;;;5036517;28;20025;-57
2021/12/10 13:05:48;;;;;;;8.02;4.10;;;;;;;;;;5040413;28;20029;-58
2021/12/10 13:08:16;;;;;;;11.00;7.22;;;;;;;;;;5043699;28;20025;-57
2021/12/10 13:10:49;;;;;;;8.23;4.18;;;;;;;;;;5031177;28;20037;-58
2021/12/10 13:13:22;;;;;;;12.25;7.28;;;;;;;;;;5037267;28;20032;-57
2021/12/10 13:15:50;;;;;;;20.70;7.05;;;;;;;;;;5038052;28;20477;-57
2021/12/10 13:18:15;;;;;;;10.15;5.63;;;;;;;;;;5050073;28;20036;-57
2021/12/10 13:20:44;;;;;;;8.65;4.25;;;;;;;;;;5048336;28;20667;-57
2021/12/10 13:23:11;;;;;;;19.88;10.18;;;;;;;;;;5029821;28;20103;-57
2021/12/10 13:25:38;;;;;;;10.43;5.97;;;;;;;;;;5040346;28;20049;-58
2021/12/10 13:28:04;;;;;;;6.20;5.03;;;;;;;;;;5037863;28;20033;-58
2021/12/10 13:30:42;;;;;;;13.18;7.82;;;;;;;;;;5032899;28;20101;-57
2021/12/10 13:33:08;;;;;;;10.02;6.50;;;;;;;;;;5042240;28;20112;-57
2021/12/10 13:35:33;;;;;;;11.25;6.07;;;;;;;;;;5055801;28;20268;-57
2021/12/10 13:37:59;;;;;;;17.80;6.90;;;;;;;;;;5039648;28;20117;-57
2021/12/10 13:40:27;;;;;;;14.65;6.03;;;;;;;;;;5039613;28;20452;-57
2021/12/10 13:42:52;;;;;;;8.68;6.43;;;;;;;;;;5043448;28;20021;-57
2021/12/10 13:45:19;;;;;;;16.17;8.70;;;;;;;;;;5037682;28;20033;-57
2021/12/10 13:47:51;;;;;;;23.10;13.18;;;;;;;;;;5041539;28;20025;-57
2021/12/10 13:50:23;;;;;;;28.15;13.43;;;;;;;;;;5038969;28;20033;-57
2021/12/10 13:52:48;;;;;;;9.13;5.65;;;;;;;;;;5032456;28;20148;-57
2021/12/10 13:55:23;;;;;;;14.93;7.82;;;;;;;;;;5032469;28;20116;-57
2021/12/10 13:58:06;;;;;;;9.13;6.60;;;;;;;;;;5041063;28;20028;-57
2021/12/10 14:00:32;;;;;;;13.18;6.47;;;;;;;;;;5037279;28;20037;-57
2021/12/10 14:02:57;;;;;;;8.27;5.10;;;;;;;;;;5037532;28;20063;-57
2021/12/10 14:05:24;;;;;;;14.90;7.00;;;;;;;;;;5042785;28;20037;-57
2021/12/10 14:08:10;;;;;;;13.68;8.13;;;;;;;;;;5035116;28;20025;-58
2021/12/10 14:10:37;;;;;;;11.88;6.07;;;;;;;;;;5023349;28;20493;-57
2021/12/10 14:13:04;;;;;;;19.35;8.68;;;;;;;;;;5023950;28;20017;-56
2021/12/10 14:15:46;;;;;;;19.42;9.65;;;;;;;;;;5017315;28;20033;-56
2021/12/10 14:18:20;;;;;;;21.30;12.32;;;;;;;;;;5037671;28;20025;-57
2021/12/10 14:20:45;;;;;;;13.98;6.35;;;;;;;;;;5043343;28;20504;-56
2021/12/10 14:23:16;;;;;;;57.97;26.00;;;;;;;;;;5043464;28;20029;-56
2021/12/10 14:25:45;;;;;;;10.95;7.25;;;;;;;;;;5048778;28;20113;-56
2021/12/10 14:28:12;;;;;;;48.85;23.83;;;;;;;;;;5053450;28;20021;-56
2021/12/10 14:30:42;;;;;;;105.28;44.15;;;;;;;;;;5038311;28;20188;-57
2021/12/10 14:33:08;;;;;;;18.55;9.23;;;;;;;;;;5025238;28;20034;-57
2021/12/10 14:35:39;;;;;;;9.02;6.80;;;;;;;;;;5012791;28;20560;-57
2021/12/10 14:38:06;;;;;;;21.40;12.75;;;;;;;;;;5017069;28;20028;-57